createdAt,value
2022-10-18T00:03:34.421Z,16.11
2022-10-18T00:08:38.589Z,16.05
2022-10-18T00:13:41.627Z,16.01
2022-10-18T00:18:45.356Z,15.97
2022-10-18T00:23:49.890Z,15.88
2022-10-18T00:28:58.465Z,15.80
2022-10-18T00:34:10.444Z,15.76
2022-10-18T00:39:19.391Z,15.74
2022-10-18T00:44:25.058Z,15.62
2022-10-18T00:49:32.994Z,15.49
2022-10-18T00:54:39.170Z,15.37
2022-10-18T00:59:43.192Z,15.26
2022-10-18T01:04:47.563Z,15.19
2022-10-18T01:10:02.416Z,15.11
2022-10-18T01:15:15.466Z,15.06
2022-10-18T01:20:43.149Z,15.02
2022-10-18T01:26:01.000Z,15.01
2022-10-18T01:31:33.027Z,14.99
2022-10-18T01:36:43.889Z,14.97
2022-10-18T01:41:49.357Z,14.97
2022-10-18T01:46:54.439Z,14.94
2022-10-18T01:51:57.266Z,14.91
2022-10-18T01:57:17.001Z,14.87
2022-10-18T02:02:42.670Z,14.84
2022-10-18T02:08:12.409Z,14.78
2022-10-18T02:13:29.506Z,14.75
2022-10-18T02:18:39.171Z,14.73
2022-10-18T02:23:45.144Z,14.71
2022-10-18T02:28:48.358Z,14.69
2022-10-18T02:33:56.893Z,14.66
2022-10-18T02:39:04.782Z,14.63
2022-10-18T02:44:07.618Z,14.60
2022-10-18T02:49:10.545Z,14.57
2022-10-18T02:54:13.323Z,14.54
2022-10-18T02:59:16.642Z,14.48
2022-10-18T03:04:19.598Z,14.41
2022-10-18T03:09:22.649Z,14.35
2022-10-18T03:14:25.453Z,14.28
2022-10-18T03:19:28.260Z,14.22
2022-10-18T03:24:31.263Z,14.17
2022-10-18T03:29:34.291Z,14.12
2022-10-18T03:34:37.170Z,14.08
2022-10-18T03:39:40.322Z,14.04
2022-10-18T03:44:43.286Z,14.01
2022-10-18T03:49:46.090Z,14.00
2022-10-18T03:54:48.891Z,13.99
2022-10-18T03:59:51.691Z,14.02
2022-10-18T04:04:54.496Z,14.12
2022-10-18T04:09:57.632Z,14.24
2022-10-18T04:15:00.411Z,14.35
2022-10-18T04:20:03.717Z,14.43
2022-10-18T04:25:07.135Z,14.46
2022-10-18T04:30:10.745Z,14.49
2022-10-18T04:35:14.174Z,14.51
2022-10-18T04:40:17.487Z,14.54
2022-10-18T04:45:20.292Z,14.55
2022-10-18T04:50:23.093Z,14.58
2022-10-18T04:55:25.997Z,14.60
2022-10-18T05:00:28.797Z,14.60
2022-10-18T05:05:49.661Z,14.60
2022-10-18T05:10:54.670Z,14.63
2022-10-18T05:15:59.736Z,14.69
2022-10-18T05:21:02.735Z,14.73
2022-10-18T05:26:07.384Z,14.76
2022-10-18T05:31:11.933Z,14.74
2022-10-18T05:36:15.061Z,14.74
2022-10-18T05:41:18.452Z,14.73
2022-10-18T05:46:21.253Z,14.73
2022-10-18T05:51:24.155Z,14.74
2022-10-18T05:56:27.008Z,14.78
2022-10-18T06:01:29.867Z,14.84
2022-10-18T06:06:33.513Z,14.89
2022-10-18T06:11:37.161Z,14.97
2022-10-18T06:16:40.119Z,15.04
2022-10-18T06:21:44.551Z,15.10
2022-10-18T06:26:47.865Z,15.19
2022-10-18T06:31:50.770Z,15.30
2022-10-18T06:36:56.386Z,15.38
2022-10-18T06:42:00.981Z,15.44
2022-10-18T06:47:04.499Z,15.52
2022-10-18T06:52:07.576Z,15.57
2022-10-18T06:57:10.413Z,15.60
2022-10-18T07:02:19.768Z,15.75
2022-10-18T07:07:22.466Z,16.15
2022-10-18T07:12:25.887Z,16.47
2022-10-18T07:17:28.861Z,16.69
2022-10-18T07:22:31.792Z,16.83
2022-10-18T07:27:39.610Z,17.02
2022-10-18T07:32:42.619Z,17.03
2022-10-18T07:37:45.422Z,16.95
2022-10-18T07:42:48.221Z,16.95
2022-10-18T07:47:56.294Z,16.91
2022-10-18T07:52:59.354Z,16.81
2022-10-18T07:58:02.158Z,16.86
2022-10-18T08:03:05.266Z,17.20
2022-10-18T08:08:08.301Z,17.46
2022-10-18T08:13:11.295Z,17.65
2022-10-18T08:18:14.492Z,17.63
2022-10-18T08:23:17.292Z,17.53
2022-10-18T08:28:20.914Z,17.49
2022-10-18T08:33:23.723Z,17.55
2022-10-18T08:38:31.546Z,17.62
2022-10-18T08:43:47.546Z,17.67
2022-10-18T08:48:54.244Z,17.59
2022-10-18T08:54:04.629Z,17.45
2022-10-18T08:59:12.750Z,17.25
2022-10-18T09:04:34.389Z,17.02
2022-10-18T09:10:02.200Z,16.78
2022-10-18T09:15:14.186Z,16.57
2022-10-18T09:20:31.445Z,16.50
2022-10-18T09:25:49.906Z,16.56
2022-10-18T09:31:05.513Z,16.73
2022-10-18T09:36:11.176Z,16.96
2022-10-18T09:41:19.996Z,17.01
2022-10-18T09:46:27.882Z,16.93
2022-10-18T09:51:40.986Z,16.85
2022-10-18T09:57:09.386Z,16.77
2022-10-18T10:02:19.843Z,16.88
2022-10-18T10:07:35.449Z,16.89
2022-10-18T10:12:40.218Z,16.98
2022-10-18T10:17:43.666Z,17.14
2022-10-18T10:22:48.046Z,17.27
2022-10-18T10:27:51.082Z,17.35
2022-10-18T10:32:55.828Z,17.49
2022-10-18T10:37:59.043Z,17.81
2022-10-18T10:43:18.187Z,18.05
2022-10-18T10:48:41.200Z,18.28
2022-10-18T10:53:50.976Z,18.52
2022-10-18T10:58:58.505Z,18.61
2022-10-18T11:04:23.106Z,18.48
2022-10-18T11:09:38.574Z,18.33
2022-10-18T11:14:46.003Z,18.18
2022-10-18T11:20:07.234Z,17.97
2022-10-18T11:25:15.565Z,17.72
2022-10-18T11:30:37.926Z,17.50
2022-10-18T11:36:03.550Z,17.60
2022-10-18T11:41:17.122Z,17.52
2022-10-18T11:46:32.721Z,17.36
2022-10-18T11:51:56.330Z,17.11
2022-10-18T11:57:16.438Z,16.87
2022-10-18T12:02:47.638Z,16.68
2022-10-18T12:07:58.989Z,16.56
2022-10-18T12:13:06.908Z,16.50
2022-10-18T12:18:23.537Z,16.52
2022-10-18T12:23:29.307Z,16.56
2022-10-18T12:28:51.734Z,16.61
2022-10-18T12:34:00.613Z,16.62
2022-10-18T12:39:11.201Z,16.57
2022-10-18T12:44:24.546Z,16.57
2022-10-18T12:49:40.179Z,16.68
2022-10-18T12:55:03.941Z,16.60
2022-10-18T13:00:27.533Z,16.47
2022-10-18T13:05:55.048Z,16.55
2022-10-18T13:11:01.806Z,16.70
2022-10-18T13:16:12.087Z,16.71
2022-10-18T13:21:42.129Z,16.64
2022-10-18T13:27:24.352Z,16.59
2022-10-18T13:33:09.770Z,16.45
2022-10-18T13:38:34.779Z,16.36
2022-10-18T13:43:53.313Z,16.31
2022-10-18T13:49:17.758Z,16.25
2022-10-18T13:54:42.575Z,16.14
2022-10-18T14:00:04.021Z,15.94
2022-10-18T14:05:25.643Z,15.79
2022-10-18T14:10:57.438Z,15.66
2022-10-18T14:16:25.126Z,15.58
2022-10-18T14:21:37.482Z,15.53
2022-10-18T14:26:40.375Z,15.45
2022-10-18T14:31:50.630Z,15.36
2022-10-18T14:36:53.543Z,15.28
2022-10-18T14:41:58.594Z,15.22
2022-10-18T14:47:13.478Z,15.19
2022-10-18T14:52:24.046Z,15.15
2022-10-18T14:57:33.977Z,15.09
2022-10-18T15:02:38.984Z,15.04
2022-10-18T15:07:42.044Z,14.98
2022-10-18T15:13:08.196Z,14.93
2022-10-18T15:18:19.525Z,14.84
2022-10-18T15:23:28.387Z,14.74
2022-10-18T15:28:49.947Z,14.65
2022-10-18T15:33:55.497Z,14.58
2022-10-18T15:39:15.091Z,14.53
2022-10-18T15:44:20.759Z,14.51
2022-10-18T15:49:45.486Z,14.48
2022-10-18T16:00:08.360Z,14.41
2022-10-18T16:05:17.089Z,14.38
2022-10-18T16:10:20.337Z,14.37
2022-10-18T16:15:23.446Z,14.39
2022-10-18T16:20:27.372Z,14.40
2022-10-18T16:25:30.275Z,14.38
2022-10-18T16:30:35.432Z,14.36
2022-10-18T16:35:38.438Z,14.32
2022-10-18T16:40:41.572Z,14.27
2022-10-18T16:45:44.892Z,14.19
2022-10-18T16:50:48.772Z,14.12
2022-10-18T16:55:59.998Z,14.08
2022-10-18T17:01:05.417Z,14.05
2022-10-18T17:06:32.729Z,14.02
2022-10-18T17:11:35.539Z,14.00
2022-10-18T17:16:39.231Z,13.97
2022-10-18T17:21:42.165Z,13.96
2022-10-18T17:26:44.963Z,13.95
2022-10-18T17:31:47.763Z,13.92
2022-10-18T17:36:50.564Z,13.87
2022-10-18T17:41:56.141Z,13.78
2022-10-18T17:46:58.931Z,13.71
2022-10-18T17:52:06.085Z,13.66
2022-10-18T17:57:10.066Z,13.60
2022-10-18T18:02:12.867Z,13.51
2022-10-18T18:07:16.080Z,13.45
2022-10-18T18:12:19.322Z,13.43
2022-10-18T18:17:28.772Z,13.40
2022-10-18T18:22:40.497Z,13.33
2022-10-18T18:27:45.411Z,13.24
2022-10-18T18:32:48.213Z,13.15
2022-10-18T18:37:51.163Z,13.06
2022-10-18T18:43:07.006Z,12.98
2022-10-18T18:48:19.096Z,12.92
2022-10-18T18:53:27.121Z,12.85
2022-10-18T18:58:32.718Z,12.77
2022-10-18T19:03:37.062Z,12.69
2022-10-18T19:08:40.911Z,12.60
2022-10-18T19:13:44.752Z,12.51
2022-10-18T19:18:59.923Z,12.46
2022-10-18T19:24:04.647Z,12.43
2022-10-18T19:29:21.704Z,12.36
2022-10-18T19:34:26.145Z,12.24
2022-10-18T19:39:34.578Z,12.11
2022-10-18T19:44:37.721Z,11.99
2022-10-18T19:49:42.986Z,11.87
2022-10-18T19:54:45.850Z,11.72
2022-10-18T19:59:48.659Z,11.58
2022-10-18T20:04:51.453Z,11.44
2022-10-18T20:09:54.257Z,11.33
2022-10-18T20:14:57.570Z,11.24
2022-10-18T20:20:00.372Z,11.14
2022-10-18T20:25:03.377Z,11.03
2022-10-18T20:30:10.436Z,10.92
2022-10-18T20:35:14.511Z,10.83
2022-10-18T20:40:17.414Z,10.74
2022-10-18T20:45:20.216Z,10.68
2022-10-18T20:50:23.126Z,10.64
2022-10-18T20:55:25.929Z,10.64
2022-10-18T21:00:29.032Z,10.65
2022-10-18T21:05:32.999Z,10.62
2022-10-18T21:10:35.866Z,10.60
2022-10-18T21:15:39.076Z,10.62
2022-10-18T21:20:41.878Z,10.67
2022-10-18T21:25:50.724Z,10.70
2022-10-18T21:30:53.524Z,10.73
2022-10-18T21:35:56.323Z,10.76
2022-10-18T21:40:59.130Z,10.80
2022-10-18T21:46:02.034Z,10.84
2022-10-18T21:51:07.307Z,10.88
2022-10-18T21:56:15.928Z,10.92
2022-10-18T22:01:39.527Z,10.95
2022-10-18T22:06:42.838Z,10.97
2022-10-18T22:11:49.341Z,10.99
2022-10-18T22:16:52.335Z,11.02
2022-10-18T22:21:55.128Z,11.04
2022-10-18T22:26:58.138Z,11.06
2022-10-18T22:32:01.962Z,11.08
2022-10-18T22:37:04.765Z,11.08
2022-10-18T22:42:07.771Z,11.07
2022-10-18T22:47:10.574Z,11.05
2022-10-18T22:52:13.384Z,11.03
2022-10-18T22:57:16.175Z,10.94
2022-10-18T23:02:18.980Z,10.86
2022-10-18T23:07:21.884Z,10.83
2022-10-18T23:12:24.686Z,10.86
2022-10-18T23:17:27.487Z,10.88
2022-10-18T23:22:30.597Z,10.87
2022-10-18T23:27:33.771Z,10.79
2022-10-18T23:32:38.621Z,10.70
2022-10-18T23:37:41.456Z,10.64
2022-10-18T23:42:44.257Z,10.57
2022-10-18T23:47:47.065Z,10.49
2022-10-18T23:52:49.863Z,10.42
2022-10-18T23:57:52.870Z,10.36
